TimeEDT,TemperatureF,Dew PointF,Humidity,Sea Level PressureIn,VisibilityMPH,Wind Direction,Wind SpeedMPH,Gust SpeedMPH,PrecipitationIn,Events,Conditions,WindDirDegrees,DateUTC
12:53 AM,75.9,71.1,85,29.94,10.0,SE,10.4,-,N/A,,Clear,140,2013-04-30 04:53:00
1:53 AM,77.0,73.0,88,29.93,10.0,SSE,12.7,-,N/A,,Clear,150,2013-04-30 05:53:00
2:53 AM,78.1,72.0,81,29.92,10.0,SSE,10.4,-,N/A,,Clear,150,2013-04-30 06:53:00
3:31 AM,78.8,73.4,83,29.91,10.0,SSE,12.7,-,N/A,,Mostly Cloudy,150,2013-04-30 07:31:00
3:45 AM,78.8,73.4,83,29.91,10.0,SSE,8.1,-,N/A,,Scattered Clouds,150,2013-04-30 07:45:00
3:53 AM,79.0,73.0,82,29.90,10.0,SSE,13.8,-,N/A,,Mostly Cloudy,150,2013-04-30 07:53:00
4:24 AM,78.8,71.6,78,29.91,10.0,SSE,11.5,20.7,N/A,,Overcast,160,2013-04-30 08:24:00
4:53 AM,79.0,71.1,77,29.91,10.0,SSE,13.8,-,N/A,,Scattered Clouds,160,2013-04-30 08:53:00
5:53 AM,79.0,72.0,79,29.91,10.0,SSE,12.7,18.4,0.00,,Mostly Cloudy,160,2013-04-30 09:53:00
6:53 AM,78.1,71.1,79,29.93,10.0,SSE,12.7,-,N/A,,Mostly Cloudy,160,2013-04-30 10:53:00
7:53 AM,80.1,72.0,76,29.95,10.0,SSE,10.4,-,N/A,,Scattered Clouds,160,2013-04-30 11:53:00
8:53 AM,81.0,72.0,74,29.97,10.0,South,12.7,-,N/A,,Mostly Cloudy,170,2013-04-30 12:53:00
9:53 AM,81.0,71.1,72,29.98,10.0,South,11.5,-,N/A,,Mostly Cloudy,170,2013-04-30 13:53:00
10:53 AM,82.9,71.1,67,29.98,10.0,SSE,12.7,-,N/A,,Mostly Cloudy,160,2013-04-30 14:53:00
11:53 AM,82.9,72.0,69,29.98,10.0,SSE,10.4,-,N/A,,Scattered Clouds,160,2013-04-30 15:53:00
12:53 PM,84.0,73.0,69,29.96,10.0,South,11.5,-,N/A,,Scattered Clouds,170,2013-04-30 16:53:00
1:53 PM,82.9,73.0,72,29.94,10.0,SSE,8.1,-,N/A,,Scattered Clouds,150,2013-04-30 17:53:00
2:53 PM,84.0,73.0,69,29.94,10.0,South,8.1,-,N/A,,Scattered Clouds,190,2013-04-30 18:53:00
3:53 PM,82.9,73.0,72,29.93,10.0,South,5.8,-,N/A,,Scattered Clouds,180,2013-04-30 19:53:00
4:53 PM,82.9,72.0,69,29.92,10.0,Variable,4.6,-,N/A,,Scattered Clouds,0,2013-04-30 20:53:00
5:53 PM,82.0,71.1,69,29.91,10.0,ESE,6.9,-,N/A,,Mostly Cloudy,120,2013-04-30 21:53:00
6:53 PM,81.0,71.1,72,29.93,10.0,ESE,6.9,-,N/A,,Mostly Cloudy,110,2013-04-30 22:53:00
7:53 PM,80.1,73.0,79,29.94,10.0,East,11.5,-,N/A,,Mostly Cloudy,80,2013-04-30 23:53:00
8:53 PM,80.6,73.4,79,29.94,10.0,East,11.5,-,N/A,,Mostly Cloudy,80,2013-05-01 00:53:00
9:53 PM,79.0,73.0,82,29.97,10.0,ENE,11.5,-,N/A,,Scattered Clouds,70,2013-05-01 01:53:00
10:53 PM,-9999,-9999,N/A,29.98,-9999.0,North,-9999.0,-,N/A,,Unknown,0,2013-05-01 02:53:00
11:53 PM,80.1,72.0,76,29.98,10.0,ESE,12.7,-,N/A,,Partly Cloudy,120,2013-05-01 03:53:00